Watrous, Canada
Current Conditions -  °F | °C
As of 11:00 PM on Friday 19 Dec 2014 (Local Time) from CYXE Reporting Station
Light Snow Light Snow  
Wind Chill:   Ceiling: 200
Heat Index: 18°   Visibility: 1mi
Dew Point: 16°   Wind: 12mph
Humidity: 93%   Direction: 130°SE
Pressure: 29.86"   Gusts: NA
Location:  51.67°N, 105.45°W
Report Text: CYXE 200500Z 13010KT 1SM R09/P6000FT/D -SN BR OVC002 M08/M09 A2986 RMK FG1ST7 VIS VRB 1/2-11/2 SLP151
Loading
Personal Weather Stations






























Interactive Weather Map New forecast layout! Learn more

10-Day Weather Forecast

Advertisements
Track Severe Weather on mobile